Ararat, Virginia
Current Conditions -  °F | °C
As of 5:15 PM on Tuesday 25 Nov 2014 (Local Time) from KMWK Reporting Station
Clear Clear  
Wind Chill: 52°   Ceiling: Unl
Heat Index: 52°   Visibility: 10mi
Dew Point: 33°   Wind: 0mph
Humidity: 48%   Direction: NA
Pressure: 30.06"   Gusts: NA
Location:  36.6°N, 80.51°W
Report Text: KMWK 252215Z AUTO 00000KT 10SM CLR 11/01 A3006 RMK AO2 T01120005
Loading
Personal Weather Stations






























Interactive Weather Map New forecast layout! Learn more

10-Day Weather Forecast

Advertisements
Track Severe Weather on mobile